UPLA849 UACC-UAKB
Flight info
| Callsign | UPLA849 |
|---|---|
| Flight time | N/A |
| Altitude | 3000 |
| Route | 5056N07145E/KARIER 5047N07204E/BATPAK 5012N07222E/RODNICHKI 4939N07241E/ZHARTAS 4947N07257E/AKTAS 4943N07306E/KORIDOR2 |
| Aircraft | C152/L-S/N |
Departure
| Time | 2026-05-04 14:32 |
|---|---|
| Airport | Nursultan Nazarbayev International Airport (UACC) |
Arrival
| Time | N/A |
|---|---|
| Airport | UAKB |
| Time | Latitude | Longitude | Altitude | Speed | Heading |
|---|---|---|---|---|---|
| 2026-05-04 14:20 | 51.02111 | 71.45538 | 1163 ft | 0 kts | 225° |
| 2026-05-04 14:29 | 51.02072 | 71.45528 | 1163 ft | 9 kts | 132° |
| 2026-05-04 14:30 | 51.02066 | 71.45537 | 1163 ft | 0 kts | 133° |
| 2026-05-04 14:30 | 51.02043 | 71.45574 | 1163 ft | 12 kts | 134° |
| 2026-05-04 14:30 | 51.01882 | 71.45575 | 1163 ft | 15 kts | 225° |
| 2026-05-04 14:31 | 51.01795 | 71.45501 | 1163 ft | 17 kts | 148° |
| 2026-05-04 14:31 | 51.01757 | 71.45841 | 1163 ft | 43 kts | 45° |
| 2026-05-04 14:32 | 51.02452 | 71.46942 | 1375 ft | 79 kts | 46° |
| 2026-05-04 14:32 | 51.02846 | 71.47537 | 1548 ft | 79 kts | 45° |
| 2026-05-04 14:32 | 51.03250 | 71.48120 | 1723 ft | 79 kts | 46° |
| 2026-05-04 14:32 | 51.03657 | 71.48666 | 1885 ft | 75 kts | 44° |
| 2026-05-04 14:33 | 51.03673 | 71.49363 | 2038 ft | 73 kts | 136° |
| 2026-05-04 14:33 | 51.03301 | 71.49922 | 2225 ft | 73 kts | 134° |
| 2026-05-04 14:33 | 51.02946 | 71.50489 | 2399 ft | 72 kts | 134° |
| 2026-05-04 14:33 | 51.02594 | 71.51045 | 2572 ft | 71 kts | 134° |
| 2026-05-04 14:34 | 51.02331 | 71.51696 | 2743 ft | 70 kts | 120° |
| 2026-05-04 14:34 | 51.02090 | 71.52355 | 2910 ft | 68 kts | 122° |
| 2026-05-04 14:34 | 51.01839 | 71.53030 | 2999 ft | 78 kts | 122° |
| 2026-05-04 14:34 | 51.01542 | 71.53817 | 3010 ft | 87 kts | 122° |
| 2026-05-04 14:35 | 51.01220 | 71.54663 | 3009 ft | 91 kts | 123° |
| 2026-05-04 14:35 | 51.00889 | 71.55529 | 3009 ft | 92 kts | 123° |
| 2026-05-04 14:35 | 51.00557 | 71.56395 | 3010 ft | 92 kts | 123° |
| 2026-05-04 14:35 | 51.00223 | 71.57262 | 3009 ft | 92 kts | 123° |
| 2026-05-04 14:36 | 50.99886 | 71.58134 | 3007 ft | 93 kts | 123° |
| 2026-05-04 14:36 | 50.99549 | 71.59007 | 3006 ft | 93 kts | 123° |
| 2026-05-04 14:36 | 50.99215 | 71.59871 | 3005 ft | 92 kts | 123° |
| 2026-05-04 14:36 | 50.98888 | 71.60735 | 3000 ft | 92 kts | 125° |
| 2026-05-04 14:37 | 50.98480 | 71.61494 | 2998 ft | 88 kts | 135° |
| 2026-05-04 14:37 | 50.98080 | 71.62159 | 2989 ft | 80 kts | 135° |
| 2026-05-04 14:37 | 50.97702 | 71.62781 | 2990 ft | 77 kts | 135° |
| 2026-05-04 14:37 | 50.97339 | 71.63390 | 2990 ft | 75 kts | 135° |
| 2026-05-04 14:38 | 50.96985 | 71.63994 | 2991 ft | 75 kts | 135° |
| 2026-05-04 14:38 | 50.96626 | 71.64602 | 2992 ft | 76 kts | 133° |
| 2026-05-04 14:38 | 50.96594 | 71.65431 | 2996 ft | 82 kts | 79° |
| 2026-05-04 14:38 | 50.96586 | 71.66287 | 2993 ft | 77 kts | 121° |
| 2026-05-04 14:39 | 50.96337 | 71.67029 | 2995 ft | 75 kts | 120° |
| 2026-05-04 14:39 | 50.96090 | 71.67754 | 2994 ft | 75 kts | 121° |
| 2026-05-04 14:39 | 50.95836 | 71.68465 | 2992 ft | 74 kts | 123° |
| 2026-05-04 14:40 | 50.95310 | 71.69876 | 2994 ft | 76 kts | 124° |
| 2026-05-04 14:40 | 50.95036 | 71.70595 | 2995 ft | 76 kts | 124° |
| 2026-05-04 14:40 | 50.94763 | 71.71308 | 2994 ft | 75 kts | 124° |
| 2026-05-04 14:40 | 50.94516 | 71.71948 | 2993 ft | 75 kts | 124° |
| 2026-05-04 14:41 | 50.94233 | 71.72680 | 2993 ft | 73 kts | 124° |
| 2026-05-04 14:41 | 50.93965 | 71.73370 | 2995 ft | 75 kts | 124° |
| 2026-05-04 14:41 | 50.93410 | 71.74801 | 2999 ft | 77 kts | 124° |
| 2026-05-04 14:42 | 50.92789 | 71.76149 | 2997 ft | 75 kts | 129° |
| 2026-05-04 14:42 | 50.92479 | 71.76808 | 2995 ft | 75 kts | 129° |
| 2026-05-04 14:42 | 50.92168 | 71.77471 | 2995 ft | 75 kts | 128° |
| 2026-05-04 14:43 | 50.91855 | 71.78135 | 2998 ft | 75 kts | 128° |
| 2026-05-04 14:43 | 50.91542 | 71.78801 | 3000 ft | 77 kts | 128° |
| 2026-05-04 14:43 | 50.91211 | 71.79501 | 3008 ft | 81 kts | 129° |
| 2026-05-04 14:43 | 50.90871 | 71.80222 | 3013 ft | 82 kts | 129° |
| 2026-05-04 14:44 | 50.90527 | 71.80952 | 3012 ft | 83 kts | 128° |
| 2026-05-04 14:44 | 50.90180 | 71.81688 | 3012 ft | 83 kts | 129° |
| 2026-05-04 14:44 | 50.89833 | 71.82423 | 3012 ft | 85 kts | 129° |
| 2026-05-04 14:44 | 50.89479 | 71.83171 | 3013 ft | 85 kts | 129° |
| 2026-05-04 14:45 | 50.89126 | 71.83919 | 3014 ft | 85 kts | 128° |
| 2026-05-04 14:45 | 50.88773 | 71.84667 | 3008 ft | 85 kts | 127° |
| 2026-05-04 14:45 | 50.88421 | 71.85412 | 3006 ft | 84 kts | 127° |
| 2026-05-04 14:45 | 50.88072 | 71.86150 | 3007 ft | 84 kts | 128° |
| 2026-05-04 14:46 | 50.87718 | 71.86898 | 3009 ft | 86 kts | 128° |
| 2026-05-04 14:46 | 50.87362 | 71.87652 | 3009 ft | 86 kts | 128° |
| 2026-05-04 14:46 | 50.87002 | 71.88411 | 3010 ft | 86 kts | 128° |
| 2026-05-04 14:46 | 50.86645 | 71.89167 | 3008 ft | 85 kts | 127° |
| 2026-05-04 14:47 | 50.86290 | 71.89916 | 3009 ft | 85 kts | 126° |
| 2026-05-04 14:47 | 50.85936 | 71.90663 | 3007 ft | 85 kts | 127° |
| 2026-05-04 14:47 | 50.85583 | 71.91408 | 3007 ft | 85 kts | 127° |
| 2026-05-04 14:47 | 50.85233 | 71.92148 | 3004 ft | 83 kts | 127° |
| 2026-05-04 14:48 | 50.84885 | 71.92882 | 3002 ft | 85 kts | 127° |
| 2026-05-04 14:48 | 50.84530 | 71.93631 | 3003 ft | 85 kts | 127° |
| 2026-05-04 14:48 | 50.84178 | 71.94374 | 3002 ft | 83 kts | 127° |
| 2026-05-04 14:48 | 50.83834 | 71.95099 | 3003 ft | 82 kts | 127° |
| 2026-05-04 14:49 | 50.83492 | 71.95820 | 3004 ft | 83 kts | 127° |
| 2026-05-04 14:49 | 50.83139 | 71.96562 | 3005 ft | 85 kts | 127° |
| 2026-05-04 14:49 | 50.82785 | 71.97308 | 3005 ft | 84 kts | 127° |
| 2026-05-04 14:49 | 50.82437 | 71.98041 | 3006 ft | 83 kts | 127° |
| 2026-05-04 14:50 | 50.82088 | 71.98775 | 3006 ft | 84 kts | 127° |
| 2026-05-04 14:50 | 50.81738 | 71.99512 | 3006 ft | 85 kts | 127° |
| 2026-05-04 14:50 | 50.81384 | 72.00257 | 3006 ft | 85 kts | 127° |
| 2026-05-04 14:50 | 50.81033 | 72.00996 | 3007 ft | 84 kts | 127° |
| 2026-05-04 14:51 | 50.80681 | 72.01735 | 3006 ft | 84 kts | 127° |
| 2026-05-04 14:51 | 50.80330 | 72.02472 | 3008 ft | 85 kts | 127° |
| 2026-05-04 14:51 | 50.79975 | 72.03220 | 3008 ft | 86 kts | 127° |
| 2026-05-04 14:51 | 50.79616 | 72.03974 | 3010 ft | 86 kts | 126° |
| 2026-05-04 14:52 | 50.79259 | 72.04722 | 3008 ft | 85 kts | 127° |
| 2026-05-04 14:52 | 50.78908 | 72.05460 | 3006 ft | 84 kts | 127° |
| 2026-05-04 14:52 | 50.78559 | 72.06192 | 3007 ft | 84 kts | 127° |
| 2026-05-04 14:52 | 50.78124 | 72.06794 | 3004 ft | 86 kts | 159° |
| 2026-05-04 14:53 | 50.77552 | 72.07074 | 3008 ft | 86 kts | 159° |
| 2026-05-04 14:53 | 50.76981 | 72.07373 | 3007 ft | 86 kts | 159° |
| 2026-05-04 14:53 | 50.76417 | 72.07666 | 3007 ft | 85 kts | 159° |
| 2026-05-04 14:53 | 50.75853 | 72.07960 | 3006 ft | 86 kts | 159° |
| 2026-05-04 14:54 | 50.75286 | 72.08254 | 3009 ft | 85 kts | 159° |
| 2026-05-04 14:54 | 50.74723 | 72.08547 | 3009 ft | 86 kts | 159° |
| 2026-05-04 14:54 | 50.74157 | 72.08841 | 3011 ft | 86 kts | 159° |
| 2026-05-04 14:54 | 50.73585 | 72.09138 | 3013 ft | 87 kts | 159° |
| 2026-05-04 14:55 | 50.73007 | 72.09439 | 3013 ft | 88 kts | 159° |
| 2026-05-04 14:55 | 50.72425 | 72.09741 | 3015 ft | 89 kts | 159° |
| 2026-05-04 14:55 | 50.71841 | 72.10044 | 3016 ft | 88 kts | 158° |
| 2026-05-04 14:55 | 50.71266 | 72.10343 | 3014 ft | 87 kts | 158° |
| 2026-05-04 14:56 | 50.70698 | 72.10638 | 3013 ft | 86 kts | 158° |
| 2026-05-04 14:56 | 50.70133 | 72.10931 | 3012 ft | 85 kts | 158° |
| 2026-05-04 14:56 | 50.69570 | 72.11223 | 3011 ft | 85 kts | 158° |
| 2026-05-04 14:56 | 50.69009 | 72.11515 | 3011 ft | 85 kts | 158° |
| 2026-05-04 14:57 | 50.68447 | 72.11806 | 3014 ft | 85 kts | 158° |
| 2026-05-04 14:57 | 50.67883 | 72.12099 | 3014 ft | 86 kts | 158° |
| 2026-05-04 14:57 | 50.67316 | 72.12394 | 3013 ft | 87 kts | 159° |
| 2026-05-04 14:57 | 50.66743 | 72.12690 | 3013 ft | 87 kts | 159° |
| 2026-05-04 14:58 | 50.66169 | 72.12987 | 3010 ft | 88 kts | 158° |
| 2026-05-04 14:58 | 50.65582 | 72.13292 | 3011 ft | 90 kts | 158° |
| 2026-05-04 14:58 | 50.64986 | 72.13600 | 3012 ft | 91 kts | 158° |
| 2026-05-04 14:58 | 50.64389 | 72.13909 | 3013 ft | 90 kts | 158° |
| 2026-05-04 14:59 | 50.63793 | 72.14218 | 3015 ft | 90 kts | 158° |
| 2026-05-04 14:59 | 50.63202 | 72.14523 | 3015 ft | 89 kts | 158° |
| 2026-05-04 14:59 | 50.62032 | 72.15128 | 3013 ft | 88 kts | 158° |
| 2026-05-04 15:00 | 50.61450 | 72.15431 | 3012 ft | 88 kts | 158° |
| 2026-05-04 15:00 | 50.60872 | 72.15730 | 3013 ft | 88 kts | 158° |
| 2026-05-04 15:00 | 50.60291 | 72.16029 | 3013 ft | 88 kts | 158° |
| 2026-05-04 15:01 | 50.59122 | 72.16634 | 3014 ft | 89 kts | 158° |
| 2026-05-04 15:01 | 50.58537 | 72.16935 | 3016 ft | 89 kts | 158° |
| 2026-05-04 15:01 | 50.57950 | 72.17239 | 3017 ft | 90 kts | 158° |
| 2026-05-04 15:01 | 50.57360 | 72.17543 | 3015 ft | 89 kts | 158° |
| 2026-05-04 15:02 | 50.56773 | 72.17846 | 3014 ft | 88 kts | 158° |
| 2026-05-04 15:02 | 50.56194 | 72.18144 | 3014 ft | 88 kts | 158° |
| 2026-05-04 15:02 | 50.55614 | 72.18443 | 3015 ft | 88 kts | 158° |
| 2026-05-04 15:02 | 50.55028 | 72.18746 | 3016 ft | 89 kts | 158° |
| 2026-05-04 15:03 | 50.54436 | 72.19051 | 3016 ft | 90 kts | 159° |
| 2026-05-04 15:03 | 50.53841 | 72.19358 | 3018 ft | 90 kts | 158° |
| 2026-05-04 15:03 | 50.53244 | 72.19665 | 3019 ft | 90 kts | 158° |
| 2026-05-04 15:03 | 50.52647 | 72.19973 | 3023 ft | 91 kts | 158° |
| 2026-05-04 15:04 | 50.52053 | 72.20279 | 3020 ft | 89 kts | 158° |
| 2026-05-04 15:04 | 50.51472 | 72.20578 | 3018 ft | 87 kts | 158° |
| 2026-05-04 15:04 | 50.50897 | 72.20874 | 3016 ft | 87 kts | 159° |
| 2026-05-04 15:04 | 50.50325 | 72.21169 | 3014 ft | 86 kts | 159° |
| 2026-05-04 15:05 | 50.49757 | 72.21461 | 3015 ft | 86 kts | 159° |
| 2026-05-04 15:05 | 50.49186 | 72.21754 | 3017 ft | 87 kts | 159° |
| 2026-05-04 15:05 | 50.48994 | 72.21853 | 3018 ft | 88 kts | 159° |